Time;durP1;ratioP1;P1;durP2;ratioP2;P2;SDS_P1;SDS_P2;PMS_P1;PMS_P2;Temp;Humidity;BMP_temperature;BMP_pressure;BME280_temperature;BME280_humidity;BME280_pressure;Samples;Min_cycle;Max_cycle;Signal;HPM_P1;HPM_P2
2023/10/05 00:02:56;;;;;;;16.50;7.28;;;13.10;99.90;;;;;;4994839;28;20300;-62
2023/10/05 00:05:22;;;;;;;13.77;6.60;;;13.10;99.90;;;;;;4992927;28;20649;-62
2023/10/05 00:07:48;;;;;;;17.90;6.57;;;13.10;99.90;;;;;;4994227;28;20164;-62
2023/10/05 00:10:16;;;;;;;18.05;6.55;;;13.00;99.90;;;;;;4990806;28;20169;-62
2023/10/05 00:12:42;;;;;;;15.13;5.80;;;13.00;99.90;;;;;;4957082;28;20180;-62
2023/10/05 00:15:13;;;;;;;13.27;6.13;;;13.10;99.90;;;;;;4974748;28;20184;-62
2023/10/05 00:17:39;;;;;;;15.07;5.65;;;13.00;99.90;;;;;;4971770;28;20215;-62
2023/10/05 00:20:15;;;;;;;18.02;6.55;;;13.00;99.90;;;;;;4994539;28;20177;-62
2023/10/05 00:22:40;;;;;;;19.15;6.20;;;12.90;99.90;;;;;;4992454;28;20206;-62
2023/10/05 00:25:09;;;;;;;13.45;6.30;;;12.90;99.90;;;;;;4994257;28;20235;-62
2023/10/05 00:27:36;;;;;;;15.30;5.93;;;12.90;99.90;;;;;;4994010;28;20180;-62
2023/10/05 00:30:02;;;;;;;13.30;6.20;;;12.90;99.90;;;;;;4993951;28;20175;-62
2023/10/05 00:32:39;;;;;;;14.88;6.88;;;12.90;99.90;;;;;;4994104;28;20200;-62
2023/10/05 00:35:22;;;;;;;13.93;6.80;;;12.90;99.90;;;;;;4992650;28;20188;-62
2023/10/05 00:37:50;;;;;;;13.27;6.65;;;12.90;99.90;;;;;;4994109;28;20156;-62
2023/10/05 00:40:34;;;;;;;13.30;6.05;;;12.90;99.90;;;;;;4991552;28;20645;-62
2023/10/05 00:43:07;;;;;;;19.27;5.93;;;12.90;99.90;;;;;;4974303;28;20189;-62
2023/10/05 00:45:33;;;;;;;17.25;6.43;;;12.90;99.90;;;;;;4974256;28;20169;-62
2023/10/05 00:48:27;;;;;;;14.90;6.50;;;12.90;99.90;;;;;;4974004;28;20180;-62
2023/10/05 00:51:01;;;;;;;16.80;6.18;;;12.90;99.90;;;;;;4993874;28;20193;-62
2023/10/05 00:53:29;;;;;;;14.13;6.63;;;12.90;99.90;;;;;;4993788;28;20618;-62
2023/10/05 00:56:04;;;;;;;18.40;6.90;;;12.90;99.90;;;;;;4992426;28;20173;-62
2023/10/05 00:58:37;;;;;;;15.18;6.57;;;12.90;99.90;;;;;;4993993;28;20218;-62
2023/10/05 01:01:08;;;;;;;18.58;6.60;;;12.90;99.90;;;;;;4993560;28;20275;-62
2023/10/05 01:03:44;;;;;;;17.90;7.40;;;13.00;99.90;;;;;;4993858;28;20248;-62
2023/10/05 01:06:28;;;;;;;12.88;6.30;;;12.90;99.90;;;;;;4993954;28;20621;-62
2023/10/05 01:09:00;;;;;;;19.35;6.95;;;12.90;99.90;;;;;;4992179;28;20227;-62
2023/10/05 01:11:52;;;;;;;17.35;7.60;;;12.90;99.90;;;;;;4980573;28;20244;-62
2023/10/05 01:14:18;;;;;;;17.50;7.75;;;12.80;99.90;;;;;;4974114;28;20158;-62
2023/10/05 01:16:45;;;;;;;14.30;7.43;;;12.80;99.90;;;;;;4974050;28;20236;-62
2023/10/05 01:19:11;;;;;;;14.10;7.47;;;12.80;99.90;;;;;;4974033;28;20267;-62
2023/10/05 01:21:39;;;;;;;14.15;7.65;;;12.80;99.90;;;;;;4972561;28;20213;-62
2023/10/05 01:24:05;;;;;;;20.02;7.45;;;12.80;99.90;;;;;;4973741;28;20653;-62
2023/10/05 01:26:37;;;;;;;16.48;7.25;;;12.80;99.90;;;;;;4973729;28;20209;-62
2023/10/05 01:29:03;;;;;;;14.50;7.20;;;12.80;99.90;;;;;;4975358;28;20496;-62
2023/10/05 01:31:29;;;;;;;17.63;6.80;;;12.80;99.90;;;;;;4977423;28;20580;-62
2023/10/05 01:33:55;;;;;;;22.95;6.88;;;12.80;99.90;;;;;;4977475;28;20192;-62
2023/10/05 01:36:23;;;;;;;17.98;6.85;;;12.80;99.90;;;;;;4977517;28;20185;-62
2023/10/05 01:38:49;;;;;;;17.17;7.63;;;12.80;99.90;;;;;;4977376;28;20595;-62
2023/10/05 01:41:21;;;;;;;15.10;6.90;;;12.80;99.90;;;;;;4977111;28;20205;-62
2023/10/05 01:43:48;;;;;;;16.20;6.50;;;12.80;99.90;;;;;;4977402;28;20165;-62
2023/10/05 01:46:16;;;;;;;14.90;7.22;;;12.80;99.90;;;;;;4977222;28;20169;-62
2023/10/05 01:48:42;;;;;;;13.68;5.50;;;12.80;99.90;;;;;;4977135;28;20165;-61
2023/10/05 01:51:10;;;;;;;14.50;5.90;;;12.80;99.90;;;;;;4977082;28;20641;-62
2023/10/05 01:53:36;;;;;;;12.95;6.15;;;12.80;99.90;;;;;;4976878;28;20176;-62
2023/10/05 01:56:03;;;;;;;11.70;6.32;;;12.80;99.90;;;;;;4959667;28;20708;-62
2023/10/05 01:58:34;;;;;;;10.88;5.22;;;12.90;99.90;;;;;;4977015;28;20668;-62
2023/10/05 02:01:00;;;;;;;14.50;5.63;;;12.90;99.90;;;;;;4959487;28;20272;-62
2023/10/05 02:03:26;;;;;;;13.02;5.72;;;12.80;99.90;;;;;;4959616;28;20709;-61
2023/10/05 02:05:58;;;;;;;11.48;4.85;;;12.90;99.90;;;;;;4976890;28;20181;-62
2023/10/05 02:08:25;;;;;;;13.52;5.60;;;12.90;99.90;;;;;;4976750;28;20181;-62
2023/10/05 02:10:51;;;;;;;11.05;5.30;;;12.90;99.90;;;;;;4976716;28;20197;-62
2023/10/05 02:13:17;;;;;;;10.52;4.88;;;12.90;99.90;;;;;;4977014;28;20208;-62
2023/10/05 02:15:47;;;;;;;10.80;5.10;;;12.90;99.90;;;;;;4959289;28;20185;-62
2023/10/05 02:18:22;;;;;;;12.02;5.00;;;12.90;99.90;;;;;;4976610;28;20197;-62
2023/10/05 02:20:51;;;;;;;12.88;5.63;;;12.80;99.90;;;;;;4976639;28;20200;-62
2023/10/05 02:25:54;;;;;;;15.45;6.18;;;12.80;99.90;;;;;;4976421;28;20247;-63
2023/10/05 02:28:25;;;;;;;12.90;6.40;;;12.80;99.90;;;;;;4976555;28;20150;-61
2023/10/05 02:30:57;;;;;;;17.60;6.07;;;12.80;99.90;;;;;;4976711;28;20231;-61
2023/10/05 02:33:31;;;;;;;16.85;5.53;;;12.80;99.90;;;;;;4976415;28;20214;-61
2023/10/05 02:38:49;;;;;;;11.55;5.18;;;12.70;99.90;;;;;;4976519;28;20522;-61
2023/10/05 02:41:37;;;;;;;10.75;4.45;;;12.70;99.90;;;;;;4975111;28;20208;-60
2023/10/05 02:44:08;;;;;;;10.82;5.18;;;12.70;99.90;;;;;;4976171;28;20160;-61
2023/10/05 02:46:34;;;;;;;14.20;5.25;;;12.70;99.90;;;;;;4976271;28;20259;-61
2023/10/05 02:48:59;;;;;;;10.90;4.50;;;12.60;99.90;;;;;;4991678;28;20626;-61
2023/10/05 02:51:26;;;;;;;15.27;5.10;;;12.70;99.90;;;;;;4995399;28;20207;-61
2023/10/05 02:54:04;;;;;;;14.65;4.80;;;12.70;99.90;;;;;;4977754;28;20637;-60
2023/10/05 02:56:33;;;;;;;13.75;5.10;;;12.70;99.90;;;;;;4995657;28;20542;-61
2023/10/05 02:59:02;;;;;;;12.98;5.35;;;12.70;99.90;;;;;;4994054;28;20645;-61
2023/10/05 03:01:32;;;;;;;11.93;5.43;;;12.70;99.90;;;;;;4995119;28;20231;-61
2023/10/05 03:04:03;;;;;;;8.40;4.85;;;12.70;99.90;;;;;;4995210;28;20251;-61
2023/10/05 03:06:29;;;;;;;12.30;5.20;;;12.70;99.90;;;;;;4995554;28;20160;-61
2023/10/05 03:08:58;;;;;;;12.77;5.90;;;12.70;99.90;;;;;;4994894;28;20578;-61
2023/10/05 03:11:25;;;;;;;15.05;5.10;;;12.70;99.90;;;;;;4983902;28;20208;-61
2023/10/05 03:13:51;;;;;;;15.10;6.53;;;12.70;99.90;;;;;;4976038;28;20228;-60
2023/10/05 03:16:17;;;;;;;14.05;5.50;;;12.70;99.90;;;;;;4975397;28;20185;-61
2023/10/05 03:18:43;;;;;;;10.75;4.88;;;12.70;99.90;;;;;;4975573;28;20594;-60
2023/10/05 03:21:13;;;;;;;8.80;4.82;;;12.70;99.90;;;;;;4973982;28;20201;-60
2023/10/05 03:23:43;;;;;;;10.77;5.25;;;12.70;99.90;;;;;;4975263;28;20180;-61
2023/10/05 03:26:11;;;;;;;11.32;5.68;;;12.60;99.90;;;;;;4975658;28;20220;-62
2023/10/05 03:28:37;;;;;;;13.30;5.10;;;12.60;99.90;;;;;;4957973;28;20181;-62
2023/10/05 03:31:13;;;;;;;10.25;5.03;;;12.60;99.90;;;;;;4958023;28;20197;-62
2023/10/05 03:33:39;;;;;;;13.43;5.20;;;12.70;99.90;;;;;;4975516;28;20161;-62
2023/10/05 03:36:13;;;;;;;9.82;4.78;;;12.60;99.90;;;;;;4973979;28;20184;-62
2023/10/05 03:38:41;;;;;;;10.25;4.68;;;12.60;99.90;;;;;;4987909;28;20220;-62
2023/10/05 03:41:13;;;;;;;13.40;4.88;;;12.70;99.90;;;;;;4984025;28;20220;-62
2023/10/05 03:43:41;;;;;;;8.05;4.60;;;12.60;99.90;;;;;;4975417;28;20180;-63
2023/10/05 03:46:06;;;;;;;12.88;5.55;;;12.60;99.90;;;;;;4974979;28;20256;-62
2023/10/05 03:48:38;;;;;;;11.85;4.80;;;12.60;99.90;;;;;;4975291;28;20252;-62
2023/10/05 03:51:08;;;;;;;11.73;4.95;;;12.60;99.90;;;;;;4973389;28;20204;-62
2023/10/05 03:53:34;;;;;;;11.75;4.90;;;12.60;99.90;;;;;;4974949;28;20158;-62
2023/10/05 03:56:00;;;;;;;15.45;5.05;;;12.60;99.90;;;;;;4975173;28;20513;-62
2023/10/05 03:58:25;;;;;;;17.05;4.97;;;12.60;99.90;;;;;;4974978;28;20174;-62
2023/10/05 04:00:51;;;;;;;14.50;4.72;;;12.60;99.90;;;;;;4975129;28;20201;-66
2023/10/05 04:03:19;;;;;;;10.80;4.57;;;12.60;99.90;;;;;;4974778;28;20209;-62
2023/10/05 04:05:45;;;;;;;15.15;5.40;;;12.60;99.90;;;;;;4974972;28;20216;-62
2023/10/05 04:08:11;;;;;;;13.32;4.78;;;12.60;99.90;;;;;;4974659;28;20651;-62
2023/10/05 04:10:49;;;;;;;18.58;4.55;;;12.60;99.90;;;;;;4974604;28;20232;-62
2023/10/05 04:13:20;;;;;;;13.35;5.35;;;12.60;99.90;;;;;;4975346;28;20165;-62
2023/10/05 04:15:46;;;;;;;9.05;4.68;;;12.50;99.90;;;;;;4974742;28;20252;-62
2023/10/05 04:18:15;;;;;;;10.63;4.80;;;12.60;99.90;;;;;;4974602;28;20705;-62
2023/10/05 04:20:43;;;;;;;18.08;5.22;;;12.60;99.90;;;;;;4974914;28;20197;-62
2023/10/05 04:23:18;;;;;;;9.85;5.35;;;12.60;99.90;;;;;;4974348;28;20197;-62
2023/10/05 04:25:52;;;;;;;15.57;5.30;;;12.60;99.90;;;;;;4974705;28;20184;-62
2023/10/05 04:28:22;;;;;;;9.18;5.15;;;12.60;99.90;;;;;;4974740;28;20654;-62
2023/10/05 04:30:49;;;;;;;14.15;5.32;;;12.60;99.90;;;;;;4957420;28;20666;-62
2023/10/05 04:33:18;;;;;;;13.93;5.63;;;12.60;99.90;;;;;;4974815;28;20227;-62
2023/10/05 04:35:44;;;;;;;11.07;4.63;;;12.60;99.90;;;;;;4974693;28;20268;-62
2023/10/05 04:38:10;;;;;;;9.60;4.88;;;12.60;99.90;;;;;;4974668;28;20166;-61
2023/10/05 04:40:38;;;;;;;12.48;5.72;;;12.60;99.90;;;;;;4974466;28;20236;-62
2023/10/05 04:43:05;;;;;;;10.80;4.70;;;12.60;99.90;;;;;;4974332;28;20203;-62
2023/10/05 04:45:31;;;;;;;10.63;5.20;;;12.60;99.90;;;;;;4974931;28;20618;-61
2023/10/05 04:48:00;;;;;;;10.07;5.30;;;12.60;99.90;;;;;;4974236;28;20188;-62
2023/10/05 04:50:27;;;;;;;15.50;6.13;;;12.60;99.90;;;;;;4974402;28;20173;-62
2023/10/05 04:52:54;;;;;;;11.93;5.10;;;12.50;99.90;;;;;;4957103;28;20173;-62
2023/10/05 04:55:23;;;;;;;12.32;5.10;;;12.50;99.90;;;;;;4974126;28;20548;-62
2023/10/05 04:58:42;;;;;;;13.05;5.70;;;12.50;99.90;;;;;;4974380;28;20181;-62
2023/10/05 05:03:43;;;;;;;10.55;5.15;;;12.50;99.90;;;;;;4974761;28;20653;-62
2023/10/05 05:08:38;;;;;;;15.35;5.78;;;12.40;99.90;;;;;;4978156;28;20169;-63
2023/10/05 05:11:11;;;;;;;11.50;4.78;;;12.40;99.90;;;;;;4978743;28;20263;-62
2023/10/05 05:13:38;;;;;;;18.88;6.22;;;12.40;99.90;;;;;;4961049;28;20650;-61
2023/10/05 05:16:05;;;;;;;11.18;5.95;;;12.40;99.90;;;;;;4978221;28;20173;-61
2023/10/05 05:18:32;;;;;;;11.75;5.35;;;12.40;99.90;;;;;;4977656;28;20185;-61
2023/10/05 05:20:57;;;;;;;12.52;5.13;;;12.40;99.90;;;;;;4977664;28;20244;-61
2023/10/05 05:23:23;;;;;;;10.40;5.60;;;12.40;99.90;;;;;;4977267;28;20217;-62
2023/10/05 05:25:52;;;;;;;14.43;5.15;;;12.40;99.90;;;;;;4976358;28;20265;-61
2023/10/05 05:28:18;;;;;;;12.95;5.43;;;12.30;99.90;;;;;;4978096;28;20205;-62
2023/10/05 05:30:43;;;;;;;11.65;5.65;;;12.30;99.90;;;;;;4977624;28;20193;-62
2023/10/05 05:33:12;;;;;;;12.52;6.13;;;12.30;99.90;;;;;;4978078;28;20173;-62
2023/10/05 05:35:41;;;;;;;13.32;5.40;;;12.30;99.90;;;;;;4977667;28;20185;-62
2023/10/05 05:38:09;;;;;;;13.18;5.70;;;12.30;99.90;;;;;;4977069;28;20177;-60
2023/10/05 05:40:38;;;;;;;11.00;4.90;;;12.30;99.90;;;;;;4977303;28;20236;-62
2023/10/05 05:43:08;;;;;;;14.70;5.30;;;12.30;99.90;;;;;;4977270;28;20260;-61
2023/10/05 05:45:35;;;;;;;10.63;4.65;;;12.30;99.90;;;;;;4977259;28;20173;-61
2023/10/05 05:48:01;;;;;;;8.98;5.00;;;12.40;99.90;;;;;;4977113;28;20189;-62
2023/10/05 05:50:30;;;;;;;20.38;5.50;;;12.40;99.90;;;;;;4977768;28;20227;-62
2023/10/05 05:52:58;;;;;;;13.23;5.05;;;12.40;99.90;;;;;;4977172;28;20177;-61
2023/10/05 05:55:23;;;;;;;9.30;4.45;;;12.40;99.90;;;;;;4976866;28;20177;-62
2023/10/05 05:57:50;;;;;;;11.68;5.00;;;12.40;99.90;;;;;;4976991;28;20700;-61
2023/10/05 06:00:18;;;;;;;11.45;5.18;;;12.40;99.90;;;;;;4977074;28;20173;-62
2023/10/05 06:02:44;;;;;;;16.30;5.68;;;12.40;99.90;;;;;;4976953;28;20206;-62
2023/10/05 06:05:10;;;;;;;17.55;5.50;;;12.50;99.90;;;;;;4977522;28;20256;-62
2023/10/05 06:07:41;;;;;;;14.27;5.25;;;12.50;99.90;;;;;;4976625;28;20180;-62
2023/10/05 06:10:14;;;;;;;13.57;5.18;;;12.50;99.90;;;;;;4975357;28;20626;-61
2023/10/05 06:12:42;;;;;;;13.93;5.95;;;12.50;99.90;;;;;;4976287;28;20165;-62
2023/10/05 06:15:13;;;;;;;12.45;5.45;;;12.50;99.90;;;;;;4976550;28;20209;-61
2023/10/05 06:17:40;;;;;;;12.52;5.30;;;12.60;99.90;;;;;;4974737;28;20185;-61
2023/10/05 06:20:07;;;;;;;10.23;5.28;;;12.60;99.90;;;;;;4975307;28;20689;-61
2023/10/05 06:22:33;;;;;;;13.38;5.97;;;12.60;99.90;;;;;;4975419;28;20253;-62
2023/10/05 06:24:59;;;;;;;13.05;5.78;;;12.60;99.90;;;;;;4976242;28;20205;-62
2023/10/05 06:27:25;;;;;;;15.68;6.15;;;12.70;99.90;;;;;;4976842;28;20656;-62
2023/10/05 06:29:52;;;;;;;15.13;4.85;;;12.70;99.90;;;;;;4975191;28;20795;-61
2023/10/05 06:32:18;;;;;;;11.77;4.97;;;12.80;99.90;;;;;;4976590;28;20232;-61
2023/10/05 06:34:45;;;;;;;12.98;5.03;;;12.80;99.90;;;;;;4976382;28;20185;-61
2023/10/05 06:37:11;;;;;;;10.60;5.38;;;12.80;99.90;;;;;;4976318;28;20209;-61
2023/10/05 06:39:39;;;;;;;17.25;5.55;;;12.80;99.90;;;;;;4976073;28;20208;-60
2023/10/05 06:42:06;;;;;;;9.40;5.32;;;12.90;99.90;;;;;;4976137;28;20209;-61
2023/10/05 06:44:33;;;;;;;16.55;5.97;;;12.90;99.90;;;;;;4976217;28;20169;-61
2023/10/05 06:46:59;;;;;;;13.10;5.35;;;12.90;99.90;;;;;;4976145;28;20201;-61
2023/10/05 06:49:27;;;;;;;13.40;6.05;;;12.90;99.90;;;;;;4976425;28;20162;-61
2023/10/05 06:51:55;;;;;;;14.95;5.30;;;12.90;99.90;;;;;;4976581;28;20231;-61
2023/10/05 06:54:21;;;;;;;9.30;5.13;;;13.00;99.90;;;;;;4976220;28;20561;-60
2023/10/05 06:56:49;;;;;;;13.85;5.28;;;13.00;99.90;;;;;;4976204;28;20165;-61
2023/10/05 06:59:15;;;;;;;10.95;5.35;;;13.00;99.90;;;;;;4975854;28;20188;-60
2023/10/05 07:01:41;;;;;;;17.40;5.78;;;13.00;99.90;;;;;;4975866;28;20669;-60
2023/10/05 07:04:08;;;;;;;13.95;5.90;;;13.10;99.90;;;;;;4976165;28;20184;-60
2023/10/05 07:06:33;;;;;;;12.25;4.78;;;13.10;99.90;;;;;;4976365;28;20540;-60
2023/10/05 07:08:59;;;;;;;7.47;5.13;;;13.10;99.90;;;;;;4975706;28;20646;-59
2023/10/05 07:11:26;;;;;;;11.57;5.13;;;13.10;99.90;;;;;;4958121;28;20209;-60
2023/10/05 07:13:52;;;;;;;15.00;5.55;;;13.10;99.90;;;;;;4974350;28;20305;-60
2023/10/05 07:16:18;;;;;;;11.52;5.53;;;13.20;99.90;;;;;;4975822;28;20252;-60
2023/10/05 07:18:44;;;;;;;10.82;5.70;;;13.20;99.90;;;;;;4975563;28;20256;-60
2023/10/05 07:21:09;;;;;;;12.40;5.80;;;13.20;99.90;;;;;;4975954;28;20201;-62
2023/10/05 07:23:39;;;;;;;15.52;5.57;;;13.20;99.90;;;;;;4975235;28;20210;-61
2023/10/05 07:26:06;;;;;;;9.85;5.38;;;13.20;99.90;;;;;;4974760;28;20188;-62
2023/10/05 07:28:33;;;;;;;16.70;5.72;;;13.20;99.90;;;;;;4975834;28;20157;-61
2023/10/05 07:30:59;;;;;;;17.83;5.85;;;13.20;99.90;;;;;;4975637;28;20203;-61
2023/10/05 07:33:25;;;;;;;15.23;5.28;;;13.20;99.90;;;;;;4975249;28;20546;-61
2023/10/05 07:35:53;;;;;;;13.75;5.78;;;13.20;99.90;;;;;;4975224;28;20177;-62
2023/10/05 07:38:20;;;;;;;13.70;4.93;;;13.30;99.90;;;;;;4975197;28;20567;-61
2023/10/05 07:40:47;;;;;;;13.75;5.18;;;13.40;99.90;;;;;;4974788;28;20681;-61
2023/10/05 07:43:13;;;;;;;13.05;4.95;;;13.40;99.90;;;;;;4975312;28;20209;-62
2023/10/05 07:45:39;;;;;;;12.20;5.43;;;13.50;99.90;;;;;;4975150;28;20197;-62
2023/10/05 07:48:06;;;;;;;11.70;5.70;;;13.50;99.90;;;;;;4974849;28;20180;-62
2023/10/05 07:50:32;;;;;;;15.77;4.93;;;13.50;99.90;;;;;;4975032;28;20197;-62
2023/10/05 07:52:58;;;;;;;9.38;4.95;;;13.50;99.90;;;;;;4974949;28;20643;-61
2023/10/05 07:55:25;;;;;;;16.17;5.63;;;13.60;99.90;;;;;;4974771;28;20219;-62
2023/10/05 07:57:53;;;;;;;11.52;4.90;;;13.60;99.90;;;;;;4974882;28;20260;-61
2023/10/05 08:00:20;;;;;;;11.60;5.25;;;13.60;99.90;;;;;;4974797;28;20646;-62
2023/10/05 08:02:46;;;;;;;14.00;4.93;;;13.60;99.90;;;;;;4973553;28;20223;-62
2023/10/05 08:05:12;;;;;;;12.15;5.53;;;13.70;99.90;;;;;;4974967;28;20173;-61
2023/10/05 08:07:39;;;;;;;11.15;4.90;;;13.60;99.90;;;;;;4974902;28;20177;-61
2023/10/05 08:10:06;;;;;;;15.65;5.35;;;13.70;99.90;;;;;;4974484;28;20629;-62
2023/10/05 08:12:32;;;;;;;15.98;5.25;;;13.70;99.90;;;;;;4975011;28;20570;-62
2023/10/05 08:14:58;;;;;;;12.45;5.85;;;13.80;99.90;;;;;;4974680;28;20545;-61
2023/10/05 08:17:24;;;;;;;11.90;6.15;;;13.80;99.90;;;;;;4974429;28;20189;-63
2023/10/05 08:19:50;;;;;;;14.15;5.22;;;13.80;99.90;;;;;;4974626;28;20188;-61
2023/10/05 08:22:16;;;;;;;12.48;5.43;;;13.90;99.90;;;;;;4974500;28;20212;-61
2023/10/05 08:24:42;;;;;;;13.73;5.43;;;14.00;99.90;;;;;;4972948;28;20189;-62
2023/10/05 08:27:14;;;;;;;11.23;5.78;;;14.00;99.90;;;;;;4974579;28;20161;-61
2023/10/05 08:29:40;;;;;;;10.10;4.97;;;14.00;99.90;;;;;;4974585;28;20165;-61
2023/10/05 08:32:07;;;;;;;12.82;5.63;;;14.00;99.90;;;;;;4974462;28;20203;-62
2023/10/05 08:34:33;;;;;;;17.20;5.85;;;14.00;99.90;;;;;;4986344;28;20169;-61
2023/10/05 08:37:01;;;;;;;15.05;5.88;;;14.00;99.90;;;;;;4992633;28;20215;-61
2023/10/05 08:39:30;;;;;;;15.70;5.53;;;14.00;99.90;;;;;;4996181;28;20192;-61
2023/10/05 08:41:57;;;;;;;15.18;5.57;;;14.10;99.90;;;;;;4982141;28;20233;-62
2023/10/05 08:44:26;;;;;;;10.65;5.28;;;14.20;99.90;;;;;;4978466;28;20180;-61
2023/10/05 08:46:55;;;;;;;11.50;5.18;;;14.30;99.90;;;;;;4978048;28;20181;-61
2023/10/05 08:49:26;;;;;;;10.35;5.18;;;14.40;99.90;;;;;;4996699;28;20168;-62
2023/10/05 08:51:52;;;;;;;14.25;5.43;;;14.50;99.90;;;;;;4997659;28;20242;-62
2023/10/05 08:54:27;;;;;;;9.80;4.72;;;14.60;99.90;;;;;;4997650;28;20203;-62
2023/10/05 08:56:54;;;;;;;13.02;5.18;;;14.70;99.90;;;;;;4997633;28;20160;-62
2023/10/05 08:59:20;;;;;;;12.13;4.88;;;14.80;99.90;;;;;;4998177;28;20165;-62
2023/10/05 09:01:46;;;;;;;14.43;5.85;;;14.80;99.90;;;;;;4997634;28;20575;-62
2023/10/05 09:06:55;;;;;;;12.80;5.10;;;14.90;99.90;;;;;;4997754;28;20156;-62
2023/10/05 09:09:38;;;;;;;10.27;4.43;;;15.00;99.90;;;;;;4997173;28;20157;-62
2023/10/05 09:12:37;;;;;;;11.02;4.78;;;15.10;99.90;;;;;;4980534;28;20228;-62
2023/10/05 09:15:09;;;;;;;10.32;4.85;;;15.30;99.90;;;;;;4978319;28;20232;-62
2023/10/05 09:17:34;;;;;;;7.97;4.80;;;15.50;99.90;;;;;;4977652;28;20184;-62
2023/10/05 09:20:23;;;;;;;15.73;4.95;;;15.50;99.90;;;;;;4978052;28;20204;-62
2023/10/05 09:22:49;;;;;;;13.48;4.80;;;15.60;99.90;;;;;;4978196;28;20256;-62
2023/10/05 09:25:17;;;;;;;9.75;4.72;;;15.70;99.90;;;;;;4978098;28;20185;-61
2023/10/05 09:27:50;;;;;;;12.77;4.97;;;15.60;99.90;;;;;;4976273;28;20192;-61
2023/10/05 09:30:21;;;;;;;11.00;4.55;;;15.60;99.90;;;;;;4977815;28;20225;-61
2023/10/05 09:32:48;;;;;;;13.13;5.38;;;15.70;99.90;;;;;;4971082;28;20238;-61
2023/10/05 09:35:26;;;;;;;9.07;4.72;;;15.70;99.90;;;;;;4978018;28;20161;-62
2023/10/05 09:37:58;;;;;;;14.82;5.00;;;15.70;99.90;;;;;;4977429;28;20223;-61
2023/10/05 09:40:26;;;;;;;14.00;5.43;;;15.70;99.90;;;;;;4975708;28;20728;-62
2023/10/05 09:42:55;;;;;;;20.55;5.63;;;15.70;99.90;;;;;;4977163;28;20211;-62
2023/10/05 09:45:25;;;;;;;13.98;5.78;;;15.70;99.90;;;;;;4977854;28;20247;-62
2023/10/05 09:47:53;;;;;;;11.65;5.10;;;15.60;99.90;;;;;;4977512;28;20180;-62
2023/10/05 09:50:21;;;;;;;10.52;4.55;;;15.60;99.90;;;;;;4994619;28;20161;-62
2023/10/05 09:52:49;;;;;;;9.82;4.68;;;15.60;99.90;;;;;;4996590;28;20184;-63
2023/10/05 09:55:18;;;;;;;12.60;5.30;;;15.60;99.90;;;;;;4996374;28;20181;-62
2023/10/05 09:57:51;;;;;;;16.83;4.60;;;15.70;99.90;;;;;;4996786;28;20239;-62
2023/10/05 10:00:47;;;;;;;10.48;4.45;;;15.70;99.90;;;;;;4996423;28;20160;-62
2023/10/05 10:03:14;;;;;;;10.52;4.63;;;15.80;99.90;;;;;;4996418;28;20192;-62
2023/10/05 10:05:49;;;;;;;13.23;4.82;;;15.80;99.90;;;;;;4996505;28;20259;-62
2023/10/05 10:08:30;;;;;;;18.73;4.78;;;15.80;99.90;;;;;;4996807;28;20152;-62
2023/10/05 10:11:17;;;;;;;9.75;4.22;;;15.80;99.90;;;;;;4989402;28;20223;-62
2023/10/05 10:13:51;;;;;;;10.25;5.00;;;15.70;99.90;;;;;;4976952;28;20169;-61
2023/10/05 10:16:22;;;;;;;11.63;4.70;;;15.70;99.90;;;;;;4976745;28;20624;-60
2023/10/05 10:18:52;;;;;;;12.05;4.47;;;15.60;99.90;;;;;;4976624;28;20188;-62
2023/10/05 10:21:24;;;;;;;12.88;5.13;;;15.70;99.90;;;;;;4976661;28;20251;-61
2023/10/05 10:24:00;;;;;;;11.52;4.63;;;15.70;99.90;;;;;;4959479;28;20581;-61
2023/10/05 10:26:26;;;;;;;11.27;4.68;;;15.80;99.90;;;;;;4976586;28;20192;-61
2023/10/05 10:31:26;;;;;;;14.88;5.13;;;15.60;99.90;;;;;;4976609;28;20200;-61
2023/10/05 10:33:53;;;;;;;11.15;4.50;;;15.60;99.90;;;;;;4976458;28;20157;-61
2023/10/05 10:36:43;;;;;;;13.70;4.70;;;15.70;99.90;;;;;;4959160;28;20224;-62
2023/10/05 10:39:32;;;;;;;13.32;4.85;;;15.80;99.90;;;;;;4958646;28;20201;-61
2023/10/05 10:42:12;;;;;;;9.10;4.43;;;15.70;99.90;;;;;;4975463;28;20221;-61
2023/10/05 10:47:19;;;;;;;15.82;4.57;;;15.70;99.90;;;;;;4976209;28;20645;-61
2023/10/05 10:52:37;;;;;;;7.95;4.28;;;15.70;99.90;;;;;;4976145;28;20200;-61
2023/10/05 10:55:05;;;;;;;12.90;4.75;;;15.70;99.90;;;;;;4975867;28;20178;-61
2023/10/05 10:57:31;;;;;;;12.60;4.35;;;15.70;99.90;;;;;;4976025;28;20178;-62
2023/10/05 11:02:44;;;;;;;10.90;3.88;;;15.70;99.90;;;;;;4975733;28;20200;-61
2023/10/05 11:05:15;;;;;;;10.40;4.40;;;15.80;99.90;;;;;;4974864;28;20607;-61
2023/10/05 11:07:44;;;;;;;11.43;4.30;;;15.90;99.90;;;;;;4975944;28;20212;-61
2023/10/05 11:10:24;;;;;;;12.45;4.60;;;15.90;99.90;;;;;;4975706;28;20173;-61
2023/10/05 11:12:57;;;;;;;9.27;4.45;;;16.10;99.90;;;;;;4976365;28;20172;-61
2023/10/05 11:15:30;;;;;;;9.90;4.60;;;16.00;99.90;;;;;;4975678;28;20166;-61
2023/10/05 11:18:00;;;;;;;8.85;4.40;;;16.00;99.90;;;;;;4975663;28;20158;-61
2023/10/05 11:20:33;;;;;;;11.45;4.40;;;16.00;99.90;;;;;;4975787;28;20645;-62
2023/10/05 11:23:04;;;;;;;8.88;4.32;;;15.90;99.90;;;;;;4958217;28;20566;-62
2023/10/05 11:25:34;;;;;;;10.40;4.43;;;16.00;99.90;;;;;;4975180;28;20197;-61
2023/10/05 11:28:01;;;;;;;11.75;4.38;;;16.00;99.90;;;;;;4975405;28;20158;-62
2023/10/05 11:30:41;;;;;;;19.58;4.70;;;16.00;99.90;;;;;;4957859;28;20188;-61
2023/10/05 11:33:16;;;;;;;10.43;4.55;;;16.10;99.90;;;;;;4975421;28;20160;-62
2023/10/05 11:35:51;;;;;;;8.85;4.43;;;16.10;99.90;;;;;;4975254;28;20546;-61
2023/10/05 11:38:19;;;;;;;13.30;4.50;;;16.30;99.90;;;;;;4975244;28;20192;-61
2023/10/05 11:40:49;;;;;;;14.68;4.60;;;16.30;99.90;;;;;;4974555;28;20208;-61
2023/10/05 11:43:17;;;;;;;14.27;4.20;;;16.40;99.90;;;;;;4975216;28;20193;-61
2023/10/05 11:46:12;;;;;;;10.25;4.05;;;16.50;99.90;;;;;;4975156;28;20201;-61
2023/10/05 11:48:47;;;;;;;6.72;4.10;;;16.50;99.90;;;;;;4975472;28;20607;-61
2023/10/05 11:51:19;;;;;;;11.57;3.97;;;16.60;99.90;;;;;;4974835;28;20196;-61
2023/10/05 11:53:47;;;;;;;13.23;4.63;;;16.60;99.90;;;;;;4975581;28;20212;-61
2023/10/05 11:56:17;;;;;;;8.43;3.78;;;16.60;99.90;;;;;;4974658;28;20172;-61
2023/10/05 11:58:47;;;;;;;9.30;4.13;;;16.80;99.90;;;;;;4975285;28;20564;-61
2023/10/05 12:01:19;;;;;;;8.20;3.78;;;16.80;99.90;;;;;;4974704;28;20193;-61
2023/10/05 12:03:47;;;;;;;8.60;3.70;;;16.70;99.90;;;;;;4975032;28;20192;-61
2023/10/05 12:06:23;;;;;;;12.10;4.25;;;16.80;99.90;;;;;;4974492;28;20650;-61
2023/10/05 12:08:53;;;;;;;9.18;3.67;;;16.70;99.90;;;;;;4974499;28;20153;-61
2023/10/05 12:11:23;;;;;;;10.95;3.67;;;16.70;99.90;;;;;;4974161;28;20193;-61
2023/10/05 12:13:56;;;;;;;12.10;4.18;;;16.60;99.90;;;;;;4974539;28;20649;-61
2023/10/05 12:16:32;;;;;;;11.38;4.30;;;16.60;99.90;;;;;;4974708;28;20252;-61
2023/10/05 12:19:13;;;;;;;12.60;5.10;;;16.50;99.90;;;;;;4974986;28;20683;-61
2023/10/05 12:21:48;;;;;;;8.65;4.00;;;16.60;99.90;;;;;;4974836;28;20326;-61
2023/10/05 12:24:14;;;;;;;9.75;4.55;;;16.70;99.90;;;;;;4973420;28;20181;-62
2023/10/05 12:26:44;;;;;;;9.95;3.97;;;16.80;99.90;;;;;;4974325;28;20557;-61
2023/10/05 12:29:14;;;;;;;9.50;4.13;;;16.90;99.90;;;;;;4974535;28;20543;-61
2023/10/05 12:31:45;;;;;;;14.32;4.30;;;17.00;99.90;;;;;;4973054;28;20209;-61
2023/10/05 12:34:15;;;;;;;9.82;4.25;;;17.00;99.90;;;;;;4991472;28;20279;-61
2023/10/05 12:36:51;;;;;;;12.02;4.05;;;16.90;99.90;;;;;;4993895;28;20177;-61
2023/10/05 12:39:18;;;;;;;11.85;3.60;;;17.00;99.90;;;;;;4993914;28;20153;-61
2023/10/05 12:41:46;;;;;;;10.18;3.70;;;17.20;99.90;;;;;;4979395;28;20216;-61
2023/10/05 12:44:16;;;;;;;8.55;4.00;;;17.40;99.90;;;;;;4974511;28;20640;-61
2023/10/05 12:46:47;;;;;;;9.93;3.97;;;17.40;99.90;;;;;;4975552;28;20185;-62
2023/10/05 12:49:15;;;;;;;8.73;4.35;;;17.40;99.90;;;;;;4973140;28;20170;-61
2023/10/05 12:51:47;;;;;;;11.05;4.78;;;17.40;99.90;;;;;;4994515;28;20562;-63
2023/10/05 12:54:28;;;;;;;7.75;3.90;;;17.40;99.90;;;;;;4976963;28;20173;-61
2023/10/05 12:56:56;;;;;;;9.15;4.53;;;17.50;99.90;;;;;;4992426;28;20207;-61
2023/10/05 12:59:26;;;;;;;8.63;4.03;;;17.40;99.90;;;;;;4994253;28;20173;-61
2023/10/05 13:01:57;;;;;;;11.40;4.45;;;17.20;99.90;;;;;;4993824;28;20204;-63
2023/10/05 13:04:24;;;;;;;9.15;4.00;;;17.20;99.90;;;;;;4992619;28;20181;-62
2023/10/05 13:06:54;;;;;;;8.90;4.03;;;17.30;99.90;;;;;;4995019;28;20171;-61
2023/10/05 13:09:20;;;;;;;11.98;4.53;;;17.40;99.90;;;;;;4994460;28;20160;-62
2023/10/05 13:11:49;;;;;;;11.43;4.07;;;17.40;99.90;;;;;;4978208;28;20280;-62
2023/10/05 13:14:15;;;;;;;13.98;4.03;;;17.30;99.90;;;;;;4976221;28;20224;-63
2023/10/05 13:16:42;;;;;;;9.95;4.30;;;17.20;99.90;;;;;;4970098;28;20188;-61